Mct Breithorn — HBHC — position and weather

sailwx.info

Track history (hours):
 
Tides and Currents Weather Stations Pressure Air Temp Water Temp Dewpoint Dewpoint Depression Visibility Wind Speed Wind Dir Waves Ship Positions

Mct Breithorn

Last reported at 2015-Jul-04 06:12 UTC. Time now 2015-Jul-06 09:16 UTC.
Position N 41°20' E 002°09'.

Length 165 m; draft 6.9 m.

Type: Ship (hazmat cat D). MMSI: 269848000.

Date/timePositionNaut miles runAvg speedWind from/ knotsBaromVisibWave heightAir tempDewpointWater temp
2015-Jul-04 06:12N 41°20' E 002°09'2 0.8
2015-Jul-04 03:29N 41°19' E 002°12'0 0.0
2015-Jul-03 23:30N 41°19' E 002°12'0 0.0
2015-Jul-03 19:23N 41°19' E 002°12'0 0.0
2015-Jul-03 17:29N 41°19' E 002°12'0 0.0
2015-Jul-03 12:32N 41°19' E 002°12'0 0.0
2015-Jul-03 10:29N 41°19' E 002°12'0 0.0
2015-Jul-03 03:30N 41°19' E 002°12'0 0.0
2015-Jul-03 02:17N 41°19' E 002°12'0 0.0
2015-Jul-03 01:23N 41°19' E 002°12'0 0.0
2015-Jul-03 00:29N 41°19' E 002°12'0 0.0
2015-Jul-02 23:17N 41°19' E 002°12'0 0.0
2015-Jul-02 20:24N 41°19' E 002°12'0 0.0
2015-Jul-02 18:05N 41°19' E 002°12'0 0.0
2015-Jul-02 16:30N 41°19' E 002°12'0 0.0
2015-Jul-02 15:11N 41°19' E 002°12'0 0.0
2015-Jul-02 14:18N 41°19' E 002°12'0 0.0
2015-Jul-02 12:05N 41°19' E 002°12'0 0.0
2015-Jul-02 11:29N 41°19' E 002°12'0 0.0
2015-Jul-02 09:24N 41°19' E 002°12'0 0.0
2015-Jul-02 06:24N 41°19' E 002°12'0 0.0
2015-Jul-02 04:12N 41°19' E 002°12'0 0.0
2015-Jul-02 02:23N 41°19' E 002°12'0 0.0
2015-Jul-02 01:12N 41°19' E 002°12'0 0.0
2015-Jul-01 22:29N 41°19' E 002°12'0 0.0
2015-Jul-01 20:29N 41°19' E 002°12'0 0.0
2015-Jul-01 19:26N 41°19' E 002°12'0 0.0
2015-Jul-01 16:32N 41°19' E 002°12'0 0.1
2015-Jul-01 15:20N 41°19' E 002°12'0 0.2
2015-Jul-01 14:33N 41°19' E 002°12'9 8.8
2015-Jul-01 13:33N 41°10' E 002°09'1413.0
2015-Jul-01 12:28N 40°58' E 002°01'1212.9
2015-Jul-01 11:33N 40°47' E 001°53'1312.8
2015-Jul-01 10:32N 40°36' E 001°45'1313.0
2015-Jul-01 09:33N 40°24' E 001°37'1313.1
2015-Jul-01 08:33N 40°13' E 001°29'1313.0
2015-Jul-01 07:33N 40°01' E 001°21'1313.0
2015-Jul-01 06:33N 39°50' E 001°14'1413.2
2015-Jul-01 05:30N 39°37' E 001°05'1213.0
2015-Jul-01 04:33N 39°27' E 000°58'1313.1
2015-Jul-01 03:33N 39°15' E 000°50'5313.2
2015-Jun-30 23:31N 38°29' E 000°16'2812.7
2015-Jun-30 21:21N 38°06' W 000°03'1213.0
2015-Jun-30 20:26N 37°56' W 000°11'1213.2
2015-Jun-30 19:33N 37°46' W 000°19'1313.2
2015-Jun-30 18:33N 37°35' W 000°29'1313.0
2015-Jun-30 17:33N 37°26' W 000°40'1312.6
2015-Jun-30 16:33N 37°18' W 000°52'1212.6
2015-Jun-30 15:33N 37°10' W 001°04'1312.6
2015-Jun-30 14:33N 37°01' W 001°16'1312.5
2015-Jun-30 13:33N 36°53' W 001°27'5012.1
2015-Jun-30 09:23N 36°21' W 002°16'1112.1
2015-Jun-30 08:30N 36°20' W 002°29'1212.7
2015-Jun-30 07:33N 36°18' W 002°44'12814.2
2015-Jun-29 22:33N 35°59' W 005°21'18154.8
2015-Jun-29 19:16N 36°30' W 009°01'3 4.7
2015-Jun-29 18:33N 36°31' W 009°05'5 4.6
2015-Jun-29 17:33N 36°33' W 009°11'4 4.1
2015-Jun-29 16:33N 36°34' W 009°16'4 4.2
2015-Jun-29 15:33N 36°36' W 009°20'4 4.4
2015-Jun-29 14:33N 36°39' W 009°24'4 3.7
2015-Jun-29 13:33N 36°42' W 009°27'4 3.3
2015-Jun-29 12:29N 36°45' W 009°30'4 2.7
2015-Jun-29 11:08N 36°48' W 009°33'4849.7
2015-Jun-29 10:11N 36°26' W 008°40'813.5
2015-Jun-29 09:33N 36°28' W 008°50'1413.6
2015-Jun-29 08:33N 36°32' W 009°06'1413.8
2015-Jun-29 07:33N 36°38' W 009°22'1413.9
2015-Jun-29 06:33N 36°48' W 009°33'1413.9
2015-Jun-29 05:33N 37°02' W 009°37'1413.9
2015-Jun-29 04:33N 37°15' W 009°41'1414.2
2015-Jun-29 03:33N 37°29' W 009°45'1414.2
2015-Jun-29 02:33N 37°43' W 009°49'1414.0
2015-Jun-29 01:33N 37°57' W 009°53'1413.8
2015-Jun-29 00:33N 38°10' W 009°57'1413.8
2015-Jun-28 23:33N 38°23' W 010°01'1413.8
2015-Jun-28 22:33N 38°37' W 010°05'1414.0
2015-Jun-28 21:33N 38°51' W 010°06'1413.9
2015-Jun-28 20:33N 39°05' W 010°07'1414.3
2015-Jun-28 19:34N 39°19' W 010°07'1414.4
2015-Jun-28 18:34N 39°33' W 010°06'1414.4
2015-Jun-28 17:33N 39°48' W 010°07'1414.3
2015-Jun-28 16:33N 40°02' W 010°06'1514.6
2015-Jun-28 15:34N 40°17' W 010°06'1414.3
2015-Jun-28 14:33N 40°31' W 010°06'1414.2
2015-Jun-28 13:34N 40°45' W 010°07'1514.3
2015-Jun-28 12:33N 40°60' W 010°07'1414.1
2015-Jun-28 11:33N 41°14' W 010°07'4414.3
2015-Jun-28 08:30N 41°57' W 010°06'1414.0
2015-Jun-28 07:30N 42°11' W 010°07'2913.9
2015-Jun-28 05:26N 42°40' W 010°07'1714.2
2015-Jun-28 04:14N 42°57' W 010°07'51813.3
2015-Jun-26 13:16N 49°59' W 002°52'913.0
2015-Jun-26 12:33N 50°02' W 002°38'1413.6
2015-Jun-26 11:33N 50°06' W 002°18'1514.5
2015-Jun-26 10:33N 50°09' W 001°56'1915.5
2015-Jun-26 09:19N 50°14' W 001°27'1315.9
2015-Jun-26 08:31N 50°18' W 001°08'2115.3
2015-Jun-26 07:09N 50°23' W 000°36'3714.1
2015-Jun-26 04:33N 50°33' E 000°19'1313.2
2015-Jun-26 03:33N 50°37' E 000°39'1413.8
2015-Jun-26 02:33N 50°44' E 000°57'1514.6
2015-Jun-26 01:32N 50°53' E 001°17'1515.4
2015-Jun-26 00:33N 51°04' E 001°32'1514.5
2015-Jun-25 23:33N 51°15' E 001°48'1313.4
2015-Jun-25 22:33N 51°25' E 002°02'1413.5
2015-Jun-25 21:33N 51°22' E 002°23'1313.1
2015-Jun-25 20:33N 51°22' E 002°43'1111.3
2015-Jun-25 19:33N 51°24' E 003°01'1111.4
2015-Jun-25 18:33N 51°24' E 003°20'1110.9
2015-Jun-25 17:33N 51°26' E 003°37'8 8.0
2015-Jun-25 16:33N 51°20' E 003°46'0 0.0
2015-Jun-25 15:31N 51°20' E 003°46'0 0.0
2015-Jun-25 14:31N 51°20' E 003°46'0 0.0
2015-Jun-25 13:31N 51°20' E 003°46'0 0.0
2015-Jun-25 12:31N 51°20' E 003°46'0 0.0
2015-Jun-25 11:31N 51°20' E 003°46'0 0.0
2015-Jun-25 10:31N 51°20' E 003°46'0 0.0
2015-Jun-25 09:31N 51°20' E 003°46'0 0.0
2015-Jun-25 08:31N 51°20' E 003°46'0 0.0
2015-Jun-25 07:31N 51°20' E 003°46'0 0.0
2015-Jun-25 06:31N 51°20' E 003°46'0 0.0
2015-Jun-25 05:31N 51°20' E 003°46'0 0.0
2015-Jun-25 04:31N 51°20' E 003°46'0 0.0
2015-Jun-25 03:31N 51°20' E 003°46'0 0.0
2015-Jun-25 02:31N 51°20' E 003°46'0 0.0
2015-Jun-25 01:31N 51°20' E 003°46'0 0.0
2015-Jun-25 00:31N 51°20' E 003°46'0 0.0
2015-Jun-24 23:31N 51°20' E 003°46'0 0.0
2015-Jun-24 22:31N 51°20' E 003°46'0 0.0
2015-Jun-24 21:29N 51°20' E 003°46'0 0.0
2015-Jun-24 20:31N 51°20' E 003°46'0 0.0
2015-Jun-24 19:31N 51°20' E 003°46'0 0.0
2015-Jun-24 18:29N 51°20' E 003°46'0 0.0
2015-Jun-24 17:31N 51°20' E 003°46'0 0.0
2015-Jun-24 16:31N 51°20' E 003°46'0 0.0
2015-Jun-24 15:31N 51°20' E 003°46'0 0.0
2015-Jun-24 14:31N 51°20' E 003°46'0 0.0
2015-Jun-24 13:31N 51°20' E 003°46'0 0.0
2015-Jun-24 12:25N 51°20' E 003°46'0 0.0
2015-Jun-24 11:31N 51°20' E 003°46'0 0.0
2015-Jun-24 10:31N 51°20' E 003°46'0 0.0
2015-Jun-24 09:31N 51°20' E 003°46'0 0.0
2015-Jun-24 08:31N 51°20' E 003°46'0 0.0
2015-Jun-24 07:31N 51°20' E 003°46'0 0.0
2015-Jun-24 06:31N 51°20' E 003°46'  
Track history (hours):
 
Tides and Currents Weather Stations Pressure Air Temp Water Temp Dewpoint Dewpoint Depression Visibility Wind Speed Wind Dir Waves Ship Positions

Mct Breithorn

Last reported at 2015-Jul-04 06:12 UTC. Time now 2015-Jul-06 09:16 UTC.
Position N 41°20' E 002°09'.

Length 165 m; draft 6.9 m.

Type: Ship (hazmat cat D). MMSI: 269848000.

Date/timePositionNaut miles runAvg speedWind from/ knotsBaromVisibWave heightAir tempDewpointWater temp
2015-Jul-04 06:12N 41°20' E 002°09'2 0.8
2015-Jul-04 03:29N 41°19' E 002°12'0 0.0
2015-Jul-03 23:30N 41°19' E 002°12'0 0.0
2015-Jul-03 19:23N 41°19' E 002°12'0 0.0
2015-Jul-03 17:29N 41°19' E 002°12'0 0.0
2015-Jul-03 12:32N 41°19' E 002°12'0 0.0
2015-Jul-03 10:29N 41°19' E 002°12'0 0.0
2015-Jul-03 03:30N 41°19' E 002°12'0 0.0
2015-Jul-03 02:17N 41°19' E 002°12'0 0.0
2015-Jul-03 01:23N 41°19' E 002°12'0 0.0
2015-Jul-03 00:29N 41°19' E 002°12'0 0.0
2015-Jul-02 23:17N 41°19' E 002°12'0 0.0
2015-Jul-02 20:24N 41°19' E 002°12'0 0.0
2015-Jul-02 18:05N 41°19' E 002°12'0 0.0
2015-Jul-02 16:30N 41°19' E 002°12'0 0.0
2015-Jul-02 15:11N 41°19' E 002°12'0 0.0
2015-Jul-02 14:18N 41°19' E 002°12'0 0.0
2015-Jul-02 12:05N 41°19' E 002°12'0 0.0
2015-Jul-02 11:29N 41°19' E 002°12'0 0.0
2015-Jul-02 09:24N 41°19' E 002°12'0 0.0
2015-Jul-02 06:24N 41°19' E 002°12'0 0.0
2015-Jul-02 04:12N 41°19' E 002°12'0 0.0
2015-Jul-02 02:23N 41°19' E 002°12'0 0.0
2015-Jul-02 01:12N 41°19' E 002°12'0 0.0
2015-Jul-01 22:29N 41°19' E 002°12'0 0.0
2015-Jul-01 20:29N 41°19' E 002°12'0 0.0
2015-Jul-01 19:26N 41°19' E 002°12'0 0.0
2015-Jul-01 16:32N 41°19' E 002°12'0 0.1
2015-Jul-01 15:20N 41°19' E 002°12'0 0.2
2015-Jul-01 14:33N 41°19' E 002°12'9 8.8
2015-Jul-01 13:33N 41°10' E 002°09'1413.0
2015-Jul-01 12:28N 40°58' E 002°01'1212.9
2015-Jul-01 11:33N 40°47' E 001°53'1312.8
2015-Jul-01 10:32N 40°36' E 001°45'1313.0
2015-Jul-01 09:33N 40°24' E 001°37'1313.1
2015-Jul-01 08:33N 40°13' E 001°29'1313.0
2015-Jul-01 07:33N 40°01' E 001°21'1313.0
2015-Jul-01 06:33N 39°50' E 001°14'1413.2
2015-Jul-01 05:30N 39°37' E 001°05'1213.0
2015-Jul-01 04:33N 39°27' E 000°58'1313.1
2015-Jul-01 03:33N 39°15' E 000°50'5313.2
2015-Jun-30 23:31N 38°29' E 000°16'2812.7
2015-Jun-30 21:21N 38°06' W 000°03'1213.0
2015-Jun-30 20:26N 37°56' W 000°11'1213.2
2015-Jun-30 19:33N 37°46' W 000°19'1313.2
2015-Jun-30 18:33N 37°35' W 000°29'1313.0
2015-Jun-30 17:33N 37°26' W 000°40'1312.6
2015-Jun-30 16:33N 37°18' W 000°52'1212.6
2015-Jun-30 15:33N 37°10' W 001°04'1312.6
2015-Jun-30 14:33N 37°01' W 001°16'1312.5
2015-Jun-30 13:33N 36°53' W 001°27'5012.1
2015-Jun-30 09:23N 36°21' W 002°16'1112.1
2015-Jun-30 08:30N 36°20' W 002°29'1212.7
2015-Jun-30 07:33N 36°18' W 002°44'12814.2
2015-Jun-29 22:33N 35°59' W 005°21'18154.8
2015-Jun-29 19:16N 36°30' W 009°01'3 4.7
2015-Jun-29 18:33N 36°31' W 009°05'5 4.6
2015-Jun-29 17:33N 36°33' W 009°11'4 4.1
2015-Jun-29 16:33N 36°34' W 009°16'4 4.2
2015-Jun-29 15:33N 36°36' W 009°20'4 4.4
2015-Jun-29 14:33N 36°39' W 009°24'4 3.7
2015-Jun-29 13:33N 36°42' W 009°27'4 3.3
2015-Jun-29 12:29N 36°45' W 009°30'4 2.7
2015-Jun-29 11:08N 36°48' W 009°33'4849.7
2015-Jun-29 10:11N 36°26' W 008°40'813.5
2015-Jun-29 09:33N 36°28' W 008°50'1413.6
2015-Jun-29 08:33N 36°32' W 009°06'1413.8
2015-Jun-29 07:33N 36°38' W 009°22'1413.9
2015-Jun-29 06:33N 36°48' W 009°33'1413.9
2015-Jun-29 05:33N 37°02' W 009°37'1413.9
2015-Jun-29 04:33N 37°15' W 009°41'1414.2
2015-Jun-29 03:33N 37°29' W 009°45'1414.2
2015-Jun-29 02:33N 37°43' W 009°49'1414.0
2015-Jun-29 01:33N 37°57' W 009°53'1413.8
2015-Jun-29 00:33N 38°10' W 009°57'1413.8
2015-Jun-28 23:33N 38°23' W 010°01'1413.8
2015-Jun-28 22:33N 38°37' W 010°05'1414.0
2015-Jun-28 21:33N 38°51' W 010°06'1413.9
2015-Jun-28 20:33N 39°05' W 010°07'1414.3
2015-Jun-28 19:34N 39°19' W 010°07'1414.4
2015-Jun-28 18:34N 39°33' W 010°06'1414.4
2015-Jun-28 17:33N 39°48' W 010°07'1414.3
2015-Jun-28 16:33N 40°02' W 010°06'1514.6
2015-Jun-28 15:34N 40°17' W 010°06'1414.3
2015-Jun-28 14:33N 40°31' W 010°06'1414.2
2015-Jun-28 13:34N 40°45' W 010°07'1514.3
2015-Jun-28 12:33N 40°60' W 010°07'1414.1
2015-Jun-28 11:33N 41°14' W 010°07'4414.3
2015-Jun-28 08:30N 41°57' W 010°06'1414.0
2015-Jun-28 07:30N 42°11' W 010°07'2913.9
2015-Jun-28 05:26N 42°40' W 010°07'1714.2
2015-Jun-28 04:14N 42°57' W 010°07'51813.3
2015-Jun-26 13:16N 49°59' W 002°52'913.0
2015-Jun-26 12:33N 50°02' W 002°38'1413.6
2015-Jun-26 11:33N 50°06' W 002°18'1514.5
2015-Jun-26 10:33N 50°09' W 001°56'1915.5
2015-Jun-26 09:19N 50°14' W 001°27'1315.9
2015-Jun-26 08:31N 50°18' W 001°08'2115.3
2015-Jun-26 07:09N 50°23' W 000°36'3714.1
2015-Jun-26 04:33N 50°33' E 000°19'1313.2
2015-Jun-26 03:33N 50°37' E 000°39'1413.8
2015-Jun-26 02:33N 50°44' E 000°57'1514.6
2015-Jun-26 01:32N 50°53' E 001°17'1515.4
2015-Jun-26 00:33N 51°04' E 001°32'1514.5
2015-Jun-25 23:33N 51°15' E 001°48'1313.4
2015-Jun-25 22:33N 51°25' E 002°02'1413.5
2015-Jun-25 21:33N 51°22' E 002°23'1313.1
2015-Jun-25 20:33N 51°22' E 002°43'1111.3
2015-Jun-25 19:33N 51°24' E 003°01'1111.4
2015-Jun-25 18:33N 51°24' E 003°20'1110.9
2015-Jun-25 17:33N 51°26' E 003°37'8 8.0
2015-Jun-25 16:33N 51°20' E 003°46'0 0.0
2015-Jun-25 15:31N 51°20' E 003°46'0 0.0
2015-Jun-25 14:31N 51°20' E 003°46'0 0.0
2015-Jun-25 13:31N 51°20' E 003°46'0 0.0
2015-Jun-25 12:31N 51°20' E 003°46'0 0.0
2015-Jun-25 11:31N 51°20' E 003°46'0 0.0
2015-Jun-25 10:31N 51°20' E 003°46'0 0.0
2015-Jun-25 09:31N 51°20' E 003°46'0 0.0
2015-Jun-25 08:31N 51°20' E 003°46'0 0.0
2015-Jun-25 07:31N 51°20' E 003°46'0 0.0
2015-Jun-25 06:31N 51°20' E 003°46'0 0.0
2015-Jun-25 05:31N 51°20' E 003°46'0 0.0
2015-Jun-25 04:31N 51°20' E 003°46'0 0.0
2015-Jun-25 03:31N 51°20' E 003°46'0 0.0
2015-Jun-25 02:31N 51°20' E 003°46'0 0.0
2015-Jun-25 01:31N 51°20' E 003°46'0 0.0
2015-Jun-25 00:31N 51°20' E 003°46'0 0.0
2015-Jun-24 23:31N 51°20' E 003°46'0 0.0
2015-Jun-24 22:31N 51°20' E 003°46'0 0.0
2015-Jun-24 21:29N 51°20' E 003°46'0 0.0
2015-Jun-24 20:31N 51°20' E 003°46'0 0.0
2015-Jun-24 19:31N 51°20' E 003°46'0 0.0
2015-Jun-24 18:29N 51°20' E 003°46'0 0.0
2015-Jun-24 17:31N 51°20' E 003°46'0 0.0
2015-Jun-24 16:31N 51°20' E 003°46'0 0.0
2015-Jun-24 15:31N 51°20' E 003°46'0 0.0
2015-Jun-24 14:31N 51°20' E 003°46'0 0.0
2015-Jun-24 13:31N 51°20' E 003°46'0 0.0
2015-Jun-24 12:25N 51°20' E 003°46'0 0.0
2015-Jun-24 11:31N 51°20' E 003°46'0 0.0
2015-Jun-24 10:31N 51°20' E 003°46'0 0.0
2015-Jun-24 09:31N 51°20' E 003°46'0 0.0
2015-Jun-24 08:31N 51°20' E 003°46'0 0.0
2015-Jun-24 07:31N 51°20' E 003°46'0 0.0
2015-Jun-24 06:31N 51°20' E 003°46'  

Dump ship's entire track history